createdAt,value
2022-07-26T00:01:22.095Z,8.13
2022-07-26T00:08:57.329Z,7.90
2022-07-26T00:16:31.478Z,7.40
2022-07-26T00:24:07.941Z,6.93
2022-07-26T00:31:41.847Z,6.97
2022-07-26T00:39:17.061Z,6.65
2022-07-26T00:46:50.805Z,6.70
2022-07-26T00:54:26.049Z,6.40
2022-07-26T01:01:59.965Z,6.65
2022-07-26T01:09:35.845Z,7.03
2022-07-26T01:17:09.660Z,6.50
2022-07-26T01:24:44.817Z,6.88
2022-07-26T01:32:19.580Z,6.72
2022-07-26T01:39:54.690Z,6.55
2022-07-26T01:47:28.636Z,7.00
2022-07-26T01:55:03.987Z,6.45
2022-07-26T02:02:37.926Z,5.63
2022-07-26T02:10:14.824Z,6.78
2022-07-26T02:17:48.836Z,6.20
2022-07-26T02:25:25.236Z,6.80
2022-07-26T02:32:59.022Z,6.25
2022-07-26T02:40:35.018Z,6.60
2022-07-26T02:48:09.307Z,6.47
2022-07-26T02:55:44.370Z,5.67
2022-07-26T03:10:53.204Z,6.57
2022-07-26T03:18:26.894Z,6.75
2022-07-26T03:26:03.004Z,5.80
2022-07-26T03:33:36.786Z,6.25
2022-07-26T03:41:13.526Z,5.90
2022-07-26T03:48:47.690Z,5.30
2022-07-26T03:56:32.645Z,5.53
2022-07-26T04:04:06.880Z,5.80
2022-07-26T04:11:44.599Z,6.57
2022-07-26T04:19:18.508Z,4.90
2022-07-26T04:26:53.634Z,4.68
2022-07-26T04:34:27.360Z,4.50
2022-07-26T04:42:02.568Z,5.20
2022-07-26T04:49:36.302Z,5.78
2022-07-26T04:57:11.399Z,5.75
2022-07-26T05:12:20.643Z,5.82
2022-07-26T05:19:55.044Z,5.80
2022-07-26T05:27:31.555Z,4.97
2022-07-26T05:35:06.680Z,4.80
2022-07-26T05:42:41.998Z,4.13
2022-07-26T05:50:15.710Z,4.32
2022-07-26T05:57:50.793Z,3.78
2022-07-26T06:13:00.698Z,3.75
2022-07-26T06:20:35.038Z,3.38
2022-07-26T06:28:11.592Z,2.90
2022-07-26T06:35:45.363Z,2.70
2022-07-26T06:43:20.707Z,3.05
2022-07-26T06:50:54.511Z,2.50
2022-07-26T06:58:29.737Z,1.90
2022-07-26T07:06:03.648Z,2.35
2022-07-26T07:13:38.761Z,2.28
2022-07-26T07:21:12.520Z,2.50
2022-07-26T07:28:49.022Z,2.40
2022-07-26T07:36:22.975Z,1.70
2022-07-26T07:43:58.164Z,2.38
2022-07-26T07:51:32.369Z,2.30
2022-07-26T07:59:07.689Z,2.57
2022-07-26T08:06:42.413Z,2.17
2022-07-26T08:14:26.122Z,1.98
2022-07-26T08:22:00.020Z,2.33
2022-07-26T08:29:36.533Z,2.10
2022-07-26T08:37:18.222Z,2.03
2022-07-26T08:44:53.678Z,1.75
2022-07-26T08:52:27.420Z,1.80
2022-07-26T09:00:22.808Z,1.73
2022-07-26T09:07:57.068Z,1.58
2022-07-26T09:15:32.507Z,1.47
2022-07-26T09:23:08.161Z,1.50
2022-07-26T09:30:53.380Z,1.40
2022-07-26T09:46:07.803Z,1.40
2022-07-26T09:53:43.090Z,1.13
2022-07-26T10:01:18.348Z,1.52
2022-07-26T10:08:54.305Z,1.50
2022-07-26T10:16:33.219Z,1.38
2022-07-26T10:24:26.429Z,1.90
2022-07-26T10:32:17.780Z,2.17
2022-07-26T10:40:11.120Z,1.30
2022-07-26T10:48:14.529Z,1.85
2022-07-26T10:55:53.956Z,1.70
2022-07-26T11:03:39.048Z,1.67
2022-07-26T11:18:48.185Z,2.42
2022-07-26T11:26:23.433Z,1.85
2022-07-26T11:33:58.597Z,2.42
2022-07-26T11:41:34.891Z,2.00
2022-07-26T11:49:17.917Z,2.00
2022-07-26T11:56:56.225Z,2.35
2022-07-26T12:04:33.251Z,2.40
2022-07-26T12:12:09.730Z,1.60
2022-07-26T12:19:45.861Z,1.67
2022-07-26T12:27:21.446Z,1.77
2022-07-26T12:34:59.515Z,1.83
2022-07-26T12:42:38.626Z,1.35
2022-07-26T12:50:15.635Z,1.40
2022-07-26T12:57:50.045Z,1.40
2022-07-26T13:05:31.682Z,1.13
2022-07-26T13:13:06.534Z,0.90
2022-07-26T13:20:41.597Z,0.90
2022-07-26T13:35:50.997Z,1.20
2022-07-26T13:43:25.678Z,1.10
2022-07-26T13:51:00.761Z,0.90
2022-07-26T14:06:09.525Z,1.20
2022-07-26T14:13:43.348Z,1.10
2022-07-26T14:21:18.476Z,0.95
2022-07-26T14:28:52.308Z,1.30
2022-07-26T14:36:27.954Z,1.10
2022-07-26T14:44:02.356Z,1.40
2022-07-26T14:51:37.673Z,1.30
2022-07-26T14:59:11.580Z,1.30
2022-07-26T15:06:46.700Z,1.10
2022-07-26T15:14:20.415Z,1.05
2022-07-26T15:21:55.986Z,0.90
2022-07-26T15:29:30.208Z,0.90
2022-07-26T15:37:05.386Z,0.63
2022-07-26T15:44:39.624Z,1.10
2022-07-26T15:52:14.868Z,0.93
2022-07-26T15:59:49.305Z,0.70
2022-07-26T16:07:24.588Z,0.90
2022-07-26T16:14:58.375Z,0.88
2022-07-26T16:22:33.588Z,0.55
2022-07-26T16:30:08.291Z,0.63
2022-07-26T16:37:43.464Z,0.47
2022-07-26T16:45:17.535Z,0.80
2022-07-26T16:52:52.720Z,0.50
2022-07-26T17:00:26.608Z,0.70
2022-07-26T17:08:01.821Z,1.00
2022-07-26T17:15:35.783Z,0.40
2022-07-26T17:23:11.255Z,0.43
2022-07-26T17:30:45.263Z,1.05
2022-07-26T17:38:20.410Z,0.50
2022-07-26T17:45:56.849Z,0.40
2022-07-26T17:53:34.638Z,0.50
2022-07-26T18:01:08.983Z,0.63
2022-07-26T18:08:44.125Z,0.40
2022-07-26T18:16:18.786Z,0.30
2022-07-26T18:24:15.402Z,0.55
2022-07-26T18:31:48.272Z,0.32
2022-07-26T18:39:23.484Z,0.70
2022-07-26T18:46:57.328Z,0.50
2022-07-26T18:54:32.725Z,0.35
2022-07-26T19:02:06.673Z,0.43
2022-07-26T19:09:42.024Z,0.32
2022-07-26T19:17:15.743Z,0.40
2022-07-26T19:24:51.361Z,0.52
2022-07-26T19:32:28.106Z,0.40
2022-07-26T19:40:08.532Z,0.65
2022-07-26T19:47:42.355Z,0.52
2022-07-26T20:02:53.394Z,0.50
2022-07-26T20:10:32.133Z,0.77
2022-07-26T20:18:06.516Z,0.82
2022-07-26T20:25:41.832Z,0.50
2022-07-26T20:33:16.628Z,0.98
2022-07-26T20:40:52.700Z,0.70
2022-07-26T20:48:27.330Z,0.80
2022-07-26T20:56:02.498Z,1.13
2022-07-26T21:03:36.243Z,0.60
2022-07-26T21:11:11.471Z,1.08
2022-07-26T21:18:45.406Z,1.05
2022-07-26T21:26:28.046Z,0.90
2022-07-26T21:41:37.297Z,0.65
2022-07-26T21:49:11.396Z,0.95
2022-07-26T21:56:47.004Z,0.77
2022-07-26T22:04:22.320Z,0.90
2022-07-26T22:11:57.452Z,1.05
2022-07-26T22:27:06.874Z,1.40
2022-07-26T22:34:40.628Z,0.95
2022-07-26T22:42:16.327Z,1.25
2022-07-26T22:49:50.318Z,1.02
2022-07-26T22:57:25.757Z,1.00
2022-07-26T23:04:59.575Z,1.00
2022-07-26T23:12:35.540Z,0.60
2022-07-26T23:20:11.379Z,0.88
2022-07-26T23:27:48.517Z,0.70
2022-07-26T23:35:22.371Z,0.90
2022-07-26T23:42:57.457Z,1.42
2022-07-26T23:58:06.169Z,0.93
